sensor_id;sensor_type;location;lat;lon;timestamp;temperature;humidity
20590;DHT22;10453;50.810;12.540;2024-02-26T00:03:00;0.30;99.90
20590;DHT22;10453;50.810;12.540;2024-02-26T00:07:18;0.30;99.90
20590;DHT22;10453;50.810;12.540;2024-02-26T00:11:38;0.30;99.90
20590;DHT22;10453;50.810;12.540;2024-02-26T00:15:55;0.20;99.90
20590;DHT22;10453;50.810;12.540;2024-02-26T00:20:12;0.20;99.90
20590;DHT22;10453;50.810;12.540;2024-02-26T00:24:30;0.10;99.90
20590;DHT22;10453;50.810;12.540;2024-02-26T00:28:47;0.10;99.90
20590;DHT22;10453;50.810;12.540;2024-02-26T00:33:05;0.10;99.90
20590;DHT22;10453;50.810;12.540;2024-02-26T00:37:22;0.10;99.90
20590;DHT22;10453;50.810;12.540;2024-02-26T00:41:42;0.00;99.90
20590;DHT22;10453;50.810;12.540;2024-02-26T00:45:59;0.00;99.90
20590;DHT22;10453;50.810;12.540;2024-02-26T00:50:16;0.00;99.90
20590;DHT22;10453;50.810;12.540;2024-02-26T00:54:34;-0.10;99.90
20590;DHT22;10453;50.810;12.540;2024-02-26T00:58:51;-0.10;99.90
20590;DHT22;10453;50.810;12.540;2024-02-26T01:03:08;-0.10;99.90
20590;DHT22;10453;50.810;12.540;2024-02-26T01:07:27;-0.20;99.90
20590;DHT22;10453;50.810;12.540;2024-02-26T01:11:45;-0.20;99.90
20590;DHT22;10453;50.810;12.540;2024-02-26T01:16:02;-0.20;99.90
20590;DHT22;10453;50.810;12.540;2024-02-26T01:20:19;-0.30;99.90
20590;DHT22;10453;50.810;12.540;2024-02-26T01:24:37;-0.30;99.90
20590;DHT22;10453;50.810;12.540;2024-02-26T01:28:54;-0.30;99.90
20590;DHT22;10453;50.810;12.540;2024-02-26T01:33:12;-0.30;99.90
20590;DHT22;10453;50.810;12.540;2024-02-26T01:37:30;-0.30;99.90
20590;DHT22;10453;50.810;12.540;2024-02-26T01:41:47;-0.30;99.90
20590;DHT22;10453;50.810;12.540;2024-02-26T01:46:04;-0.40;99.90
20590;DHT22;10453;50.810;12.540;2024-02-26T01:50:22;-0.40;99.90
20590;DHT22;10453;50.810;12.540;2024-02-26T01:54:39;-0.40;99.90
20590;DHT22;10453;50.810;12.540;2024-02-26T01:58:57;-0.40;99.90
20590;DHT22;10453;50.810;12.540;2024-02-26T02:03:14;-0.40;99.90
20590;DHT22;10453;50.810;12.540;2024-02-26T02:07:31;-0.30;99.90
20590;DHT22;10453;50.810;12.540;2024-02-26T02:11:48;-0.40;99.90
20590;DHT22;10453;50.810;12.540;2024-02-26T02:16:07;-0.40;99.90
20590;DHT22;10453;50.810;12.540;2024-02-26T02:20:25;0.40;99.90
20590;DHT22;10453;50.810;12.540;2024-02-26T02:24:44;-0.40;99.90
20590;DHT22;10453;50.810;12.540;2024-02-26T02:29:01;-0.40;99.90
20590;DHT22;10453;50.810;12.540;2024-02-26T02:33:19;-0.40;99.90
20590;DHT22;10453;50.810;12.540;2024-02-26T02:37:36;-0.40;99.90
20590;DHT22;10453;50.810;12.540;2024-02-26T02:41:54;-0.40;99.90
20590;DHT22;10453;50.810;12.540;2024-02-26T02:46:11;-0.40;99.90
20590;DHT22;10453;50.810;12.540;2024-02-26T02:50:28;-0.30;99.90
20590;DHT22;10453;50.810;12.540;2024-02-26T02:54:46;-0.30;99.90
20590;DHT22;10453;50.810;12.540;2024-02-26T02:59:04;-0.30;99.90
20590;DHT22;10453;50.810;12.540;2024-02-26T03:03:21;-0.40;99.90
20590;DHT22;10453;50.810;12.540;2024-02-26T03:07:41;-0.40;99.90
20590;DHT22;10453;50.810;12.540;2024-02-26T03:11:58;-0.40;99.90
20590;DHT22;10453;50.810;12.540;2024-02-26T03:16:16;-0.40;99.90
20590;DHT22;10453;50.810;12.540;2024-02-26T03:20:34;-0.50;99.90
20590;DHT22;10453;50.810;12.540;2024-02-26T03:24:51;-0.50;99.90
20590;DHT22;10453;50.810;12.540;2024-02-26T03:29:08;-0.50;99.90
20590;DHT22;10453;50.810;12.540;2024-02-26T03:33:25;-0.50;99.90
20590;DHT22;10453;50.810;12.540;2024-02-26T03:37:42;-0.60;99.90
20590;DHT22;10453;50.810;12.540;2024-02-26T03:41:59;-0.60;99.90
20590;DHT22;10453;50.810;12.540;2024-02-26T03:46:17;-0.80;99.90
20590;DHT22;10453;50.810;12.540;2024-02-26T03:50:34;-0.70;99.90
20590;DHT22;10453;50.810;12.540;2024-02-26T03:54:51;-0.80;99.90
20590;DHT22;10453;50.810;12.540;2024-02-26T03:59:09;-0.70;99.90
20590;DHT22;10453;50.810;12.540;2024-02-26T04:03:26;-0.70;99.90
20590;DHT22;10453;50.810;12.540;2024-02-26T04:07:43;-0.70;99.90
20590;DHT22;10453;50.810;12.540;2024-02-26T04:12:00;-0.70;99.90
20590;DHT22;10453;50.810;12.540;2024-02-26T04:16:17;-0.70;99.90
20590;DHT22;10453;50.810;12.540;2024-02-26T04:20:36;-0.70;99.90
20590;DHT22;10453;50.810;12.540;2024-02-26T04:24:53;-0.70;99.90
20590;DHT22;10453;50.810;12.540;2024-02-26T04:29:10;-0.70;99.90
20590;DHT22;10453;50.810;12.540;2024-02-26T04:33:27;-0.80;99.90
20590;DHT22;10453;50.810;12.540;2024-02-26T04:37:44;-0.80;99.90
20590;DHT22;10453;50.810;12.540;2024-02-26T04:42:02;-0.90;99.90
20590;DHT22;10453;50.810;12.540;2024-02-26T04:46:21;-0.90;99.90
20590;DHT22;10453;50.810;12.540;2024-02-26T04:50:41;-0.90;99.90
20590;DHT22;10453;50.810;12.540;2024-02-26T04:54:58;-0.90;99.90
20590;DHT22;10453;50.810;12.540;2024-02-26T04:59:17;-1.00;99.90
20590;DHT22;10453;50.810;12.540;2024-02-26T05:03:34;-0.90;99.90
20590;DHT22;10453;50.810;12.540;2024-02-26T05:07:53;-1.00;99.90
20590;DHT22;10453;50.810;12.540;2024-02-26T05:12:10;-1.00;99.90
20590;DHT22;10453;50.810;12.540;2024-02-26T05:16:27;-1.00;99.90
20590;DHT22;10453;50.810;12.540;2024-02-26T05:20:47;-1.00;99.90
20590;DHT22;10453;50.810;12.540;2024-02-26T05:25:04;-1.00;99.90
20590;DHT22;10453;50.810;12.540;2024-02-26T05:29:21;-1.00;99.90
20590;DHT22;10453;50.810;12.540;2024-02-26T05:33:38;-1.10;99.90
20590;DHT22;10453;50.810;12.540;2024-02-26T05:37:55;-1.10;99.90
20590;DHT22;10453;50.810;12.540;2024-02-26T05:42:13;-1.10;99.90
20590;DHT22;10453;50.810;12.540;2024-02-26T05:46:30;-1.00;99.90
20590;DHT22;10453;50.810;12.540;2024-02-26T05:50:47;-1.00;99.90
20590;DHT22;10453;50.810;12.540;2024-02-26T05:55:04;-1.00;99.90
20590;DHT22;10453;50.810;12.540;2024-02-26T05:59:22;-1.00;99.90
20590;DHT22;10453;50.810;12.540;2024-02-26T06:03:41;-1.00;99.90
20590;DHT22;10453;50.810;12.540;2024-02-26T06:07:59;-1.00;99.90
20590;DHT22;10453;50.810;12.540;2024-02-26T06:12:17;-0.90;99.90
20590;DHT22;10453;50.810;12.540;2024-02-26T06:16:34;-0.90;99.90
20590;DHT22;10453;50.810;12.540;2024-02-26T06:20:51;-0.80;99.90
20590;DHT22;10453;50.810;12.540;2024-02-26T06:25:09;-0.80;99.90
20590;DHT22;10453;50.810;12.540;2024-02-26T06:29:26;-0.80;99.90
20590;DHT22;10453;50.810;12.540;2024-02-26T06:33:43;-0.70;99.90
20590;DHT22;10453;50.810;12.540;2024-02-26T06:38:01;-0.50;99.90
20590;DHT22;10453;50.810;12.540;2024-02-26T06:42:18;-0.40;99.90
20590;DHT22;10453;50.810;12.540;2024-02-26T06:46:35;-0.30;99.90
20590;DHT22;10453;50.810;12.540;2024-02-26T06:50:52;-0.20;99.90
20590;DHT22;10453;50.810;12.540;2024-02-26T06:55:09;-0.10;99.90
20590;DHT22;10453;50.810;12.540;2024-02-26T06:59:26;0.10;99.90
20590;DHT22;10453;50.810;12.540;2024-02-26T07:03:43;0.30;99.90
20590;DHT22;10453;50.810;12.540;2024-02-26T07:08:01;0.40;99.90
20590;DHT22;10453;50.810;12.540;2024-02-26T07:12:18;0.50;99.90
20590;DHT22;10453;50.810;12.540;2024-02-26T07:16:36;0.70;99.90
20590;DHT22;10453;50.810;12.540;2024-02-26T07:20:54;1.10;99.90
20590;DHT22;10453;50.810;12.540;2024-02-26T07:25:14;1.30;99.90
20590;DHT22;10453;50.810;12.540;2024-02-26T07:29:33;1.40;99.90
20590;DHT22;10453;50.810;12.540;2024-02-26T07:33:50;1.40;99.90
20590;DHT22;10453;50.810;12.540;2024-02-26T07:38:07;1.50;99.90
20590;DHT22;10453;50.810;12.540;2024-02-26T07:42:38;1.50;99.90
20590;DHT22;10453;50.810;12.540;2024-02-26T07:46:56;1.70;99.90
20590;DHT22;10453;50.810;12.540;2024-02-26T07:51:13;1.80;99.90
20590;DHT22;10453;50.810;12.540;2024-02-26T07:55:31;1.80;99.90
20590;DHT22;10453;50.810;12.540;2024-02-26T07:59:48;1.90;99.90
20590;DHT22;10453;50.810;12.540;2024-02-26T08:04:07;2.00;99.90
20590;DHT22;10453;50.810;12.540;2024-02-26T08:08:24;2.10;99.90
20590;DHT22;10453;50.810;12.540;2024-02-26T08:12:42;2.30;99.90
20590;DHT22;10453;50.810;12.540;2024-02-26T08:16:59;2.70;99.90
20590;DHT22;10453;50.810;12.540;2024-02-26T08:21:16;2.70;99.90
20590;DHT22;10453;50.810;12.540;2024-02-26T08:25:33;3.00;99.90
20590;DHT22;10453;50.810;12.540;2024-02-26T08:29:50;3.20;99.90
20590;DHT22;10453;50.810;12.540;2024-02-26T08:34:07;3.50;99.90
20590;DHT22;10453;50.810;12.540;2024-02-26T08:38:25;3.70;99.90
20590;DHT22;10453;50.810;12.540;2024-02-26T08:42:42;3.80;99.90
20590;DHT22;10453;50.810;12.540;2024-02-26T08:46:59;4.00;99.90
20590;DHT22;10453;50.810;12.540;2024-02-26T08:51:16;4.10;99.90
20590;DHT22;10453;50.810;12.540;2024-02-26T08:55:34;4.30;99.90
20590;DHT22;10453;50.810;12.540;2024-02-26T08:59:52;4.50;99.90
20590;DHT22;10453;50.810;12.540;2024-02-26T09:04:09;4.90;99.90
20590;DHT22;10453;50.810;12.540;2024-02-26T09:08:26;5.10;99.90
20590;DHT22;10453;50.810;12.540;2024-02-26T09:12:43;5.40;99.90
20590;DHT22;10453;50.810;12.540;2024-02-26T09:17:00;5.80;99.90
20590;DHT22;10453;50.810;12.540;2024-02-26T09:21:17;6.00;99.90
20590;DHT22;10453;50.810;12.540;2024-02-26T09:25:40;6.30;99.90
20590;DHT22;10453;50.810;12.540;2024-02-26T09:29:57;6.50;99.90
20590;DHT22;10453;50.810;12.540;2024-02-26T09:34:14;6.60;99.90
20590;DHT22;10453;50.810;12.540;2024-02-26T09:38:32;6.70;99.90
20590;DHT22;10453;50.810;12.540;2024-02-26T09:43:05;7.00;99.90
20590;DHT22;10453;50.810;12.540;2024-02-26T09:47:25;7.20;99.90
20590;DHT22;10453;50.810;12.540;2024-02-26T09:51:44;7.60;99.90
20590;DHT22;10453;50.810;12.540;2024-02-26T09:56:01;8.00;99.90
20590;DHT22;10453;50.810;12.540;2024-02-26T10:00:18;8.20;99.90
20590;DHT22;10453;50.810;12.540;2024-02-26T10:04:36;8.40;99.90
20590;DHT22;10453;50.810;12.540;2024-02-26T10:08:54;8.70;99.90
20590;DHT22;10453;50.810;12.540;2024-02-26T10:13:12;8.90;99.90
20590;DHT22;10453;50.810;12.540;2024-02-26T10:17:29;9.30;99.90
20590;DHT22;10453;50.810;12.540;2024-02-26T10:21:46;9.60;99.90
20590;DHT22;10453;50.810;12.540;2024-02-26T10:26:03;9.90;99.90
20590;DHT22;10453;50.810;12.540;2024-02-26T10:30:21;10.10;99.90
20590;DHT22;10453;50.810;12.540;2024-02-26T10:34:40;10.10;99.90
20590;DHT22;10453;50.810;12.540;2024-02-26T10:39:01;10.10;99.90
20590;DHT22;10453;50.810;12.540;2024-02-26T10:43:18;10.50;99.90
20590;DHT22;10453;50.810;12.540;2024-02-26T10:47:36;10.50;99.90
20590;DHT22;10453;50.810;12.540;2024-02-26T10:51:56;10.70;99.90
20590;DHT22;10453;50.810;12.540;2024-02-26T10:56:16;10.80;99.90
20590;DHT22;10453;50.810;12.540;2024-02-26T11:00:34;10.90;99.90
20590;DHT22;10453;50.810;12.540;2024-02-26T11:04:53;10.80;99.90
20590;DHT22;10453;50.810;12.540;2024-02-26T11:09:11;10.50;99.90
20590;DHT22;10453;50.810;12.540;2024-02-26T11:13:30;11.10;99.90
20590;DHT22;10453;50.810;12.540;2024-02-26T11:17:52;11.00;99.90
20590;DHT22;10453;50.810;12.540;2024-02-26T11:22:09;11.20;99.90
20590;DHT22;10453;50.810;12.540;2024-02-26T11:26:42;11.50;99.90
20590;DHT22;10453;50.810;12.540;2024-02-26T11:31:02;11.60;99.90
20590;DHT22;10453;50.810;12.540;2024-02-26T11:35:21;11.40;99.90
20590;DHT22;10453;50.810;12.540;2024-02-26T11:39:41;11.80;99.90
20590;DHT22;10453;50.810;12.540;2024-02-26T11:44:00;12.10;99.90
20590;DHT22;10453;50.810;12.540;2024-02-26T11:48:24;11.90;99.90
20590;DHT22;10453;50.810;12.540;2024-02-26T11:52:52;11.90;99.90
20590;DHT22;10453;50.810;12.540;2024-02-26T11:57:19;12.10;99.90
20590;DHT22;10453;50.810;12.540;2024-02-26T12:05:54;12.20;99.90
20590;DHT22;10453;50.810;12.540;2024-02-26T12:10:15;12.40;99.90
20590;DHT22;10453;50.810;12.540;2024-02-26T12:14:33;12.30;99.90
20590;DHT22;10453;50.810;12.540;2024-02-26T12:18:51;12.40;99.90
20590;DHT22;10453;50.810;12.540;2024-02-26T12:23:08;12.30;99.90
20590;DHT22;10453;50.810;12.540;2024-02-26T12:27:25;12.40;99.90
20590;DHT22;10453;50.810;12.540;2024-02-26T12:31:43;12.60;99.90
20590;DHT22;10453;50.810;12.540;2024-02-26T12:36:00;12.70;99.90
20590;DHT22;10453;50.810;12.540;2024-02-26T12:40:17;12.90;99.90
20590;DHT22;10453;50.810;12.540;2024-02-26T12:44:35;13.30;99.90
20590;DHT22;10453;50.810;12.540;2024-02-26T12:48:54;13.50;99.90
20590;DHT22;10453;50.810;12.540;2024-02-26T12:53:14;13.70;99.90
20590;DHT22;10453;50.810;12.540;2024-02-26T12:57:31;13.70;99.90
20590;DHT22;10453;50.810;12.540;2024-02-26T13:01:49;13.80;99.90
20590;DHT22;10453;50.810;12.540;2024-02-26T13:06:06;14.10;99.90
20590;DHT22;10453;50.810;12.540;2024-02-26T13:10:24;14.00;99.90
20590;DHT22;10453;50.810;12.540;2024-02-26T13:14:42;13.90;99.90
20590;DHT22;10453;50.810;12.540;2024-02-26T13:19:09;13.70;99.90
20590;DHT22;10453;50.810;12.540;2024-02-26T13:23:27;14.10;99.90
20590;DHT22;10453;50.810;12.540;2024-02-26T13:27:44;14.10;99.90
20590;DHT22;10453;50.810;12.540;2024-02-26T13:32:01;14.00;99.90
20590;DHT22;10453;50.810;12.540;2024-02-26T13:36:21;13.80;99.90
20590;DHT22;10453;50.810;12.540;2024-02-26T13:40:39;14.00;99.90
20590;DHT22;10453;50.810;12.540;2024-02-26T13:44:57;14.10;99.90
20590;DHT22;10453;50.810;12.540;2024-02-26T13:49:14;13.80;99.90
20590;DHT22;10453;50.810;12.540;2024-02-26T13:53:32;13.60;99.90
20590;DHT22;10453;50.810;12.540;2024-02-26T13:57:54;13.60;99.90
20590;DHT22;10453;50.810;12.540;2024-02-26T14:02:11;13.70;99.90
20590;DHT22;10453;50.810;12.540;2024-02-26T14:06:29;13.80;99.90
20590;DHT22;10453;50.810;12.540;2024-02-26T14:10:48;13.90;99.90
20590;DHT22;10453;50.810;12.540;2024-02-26T14:15:06;14.10;99.90
20590;DHT22;10453;50.810;12.540;2024-02-26T14:19:26;14.00;99.90
20590;DHT22;10453;50.810;12.540;2024-02-26T14:23:44;13.90;99.90
20590;DHT22;10453;50.810;12.540;2024-02-26T14:28:01;13.80;99.90
20590;DHT22;10453;50.810;12.540;2024-02-26T14:32:19;13.50;99.90
20590;DHT22;10453;50.810;12.540;2024-02-26T14:36:36;13.60;99.90
20590;DHT22;10453;50.810;12.540;2024-02-26T14:40:53;13.40;99.90
20590;DHT22;10453;50.810;12.540;2024-02-26T14:45:11;13.40;99.90
20590;DHT22;10453;50.810;12.540;2024-02-26T14:49:29;13.40;99.90
20590;DHT22;10453;50.810;12.540;2024-02-26T14:53:49;13.40;99.90
20590;DHT22;10453;50.810;12.540;2024-02-26T14:58:06;13.40;99.90
20590;DHT22;10453;50.810;12.540;2024-02-26T15:02:23;13.30;99.90
20590;DHT22;10453;50.810;12.540;2024-02-26T15:06:40;13.10;99.90
20590;DHT22;10453;50.810;12.540;2024-02-26T15:10:58;12.80;99.90
20590;DHT22;10453;50.810;12.540;2024-02-26T15:15:15;12.30;99.90
20590;DHT22;10453;50.810;12.540;2024-02-26T15:19:32;12.20;99.90
20590;DHT22;10453;50.810;12.540;2024-02-26T15:23:50;12.10;99.90
20590;DHT22;10453;50.810;12.540;2024-02-26T15:28:23;11.90;99.90
20590;DHT22;10453;50.810;12.540;2024-02-26T15:32:42;11.70;99.90
20590;DHT22;10453;50.810;12.540;2024-02-26T15:37:00;11.60;99.90
20590;DHT22;10453;50.810;12.540;2024-02-26T15:41:17;11.50;99.90
20590;DHT22;10453;50.810;12.540;2024-02-26T15:45:34;11.40;99.90
20590;DHT22;10453;50.810;12.540;2024-02-26T15:49:51;11.20;99.90
20590;DHT22;10453;50.810;12.540;2024-02-26T15:54:09;11.20;99.90
20590;DHT22;10453;50.810;12.540;2024-02-26T15:58:26;11.20;99.90
20590;DHT22;10453;50.810;12.540;2024-02-26T16:02:43;11.00;99.90
20590;DHT22;10453;50.810;12.540;2024-02-26T16:07:04;10.90;99.90
20590;DHT22;10453;50.810;12.540;2024-02-26T16:11:27;10.80;99.90
20590;DHT22;10453;50.810;12.540;2024-02-26T16:15:46;10.60;99.90
20590;DHT22;10453;50.810;12.540;2024-02-26T16:20:04;10.40;99.90
20590;DHT22;10453;50.810;12.540;2024-02-26T16:24:22;10.10;99.90
20590;DHT22;10453;50.810;12.540;2024-02-26T16:28:39;9.90;99.90
20590;DHT22;10453;50.810;12.540;2024-02-26T16:32:56;9.70;99.90
20590;DHT22;10453;50.810;12.540;2024-02-26T16:37:14;9.40;99.90
20590;DHT22;10453;50.810;12.540;2024-02-26T16:41:34;9.10;99.90
20590;DHT22;10453;50.810;12.540;2024-02-26T16:45:51;9.00;99.90
20590;DHT22;10453;50.810;12.540;2024-02-26T16:50:11;8.90;99.90
20590;DHT22;10453;50.810;12.540;2024-02-26T16:54:29;8.70;99.90
20590;DHT22;10453;50.810;12.540;2024-02-26T16:58:47;8.60;99.90
20590;DHT22;10453;50.810;12.540;2024-02-26T17:03:04;8.50;99.90
20590;DHT22;10453;50.810;12.540;2024-02-26T17:07:21;8.30;99.90
20590;DHT22;10453;50.810;12.540;2024-02-26T17:11:42;8.10;99.90
20590;DHT22;10453;50.810;12.540;2024-02-26T17:16:01;8.00;99.90
20590;DHT22;10453;50.810;12.540;2024-02-26T17:20:18;7.80;99.90
20590;DHT22;10453;50.810;12.540;2024-02-26T17:24:37;7.60;99.90
20590;DHT22;10453;50.810;12.540;2024-02-26T17:28:55;7.50;99.90
20590;DHT22;10453;50.810;12.540;2024-02-26T17:33:13;7.40;99.90
20590;DHT22;10453;50.810;12.540;2024-02-26T17:37:30;7.40;99.90
20590;DHT22;10453;50.810;12.540;2024-02-26T17:41:47;7.20;99.90
20590;DHT22;10453;50.810;12.540;2024-02-26T17:46:04;7.10;99.90
20590;DHT22;10453;50.810;12.540;2024-02-26T17:50:21;7.10;99.90
20590;DHT22;10453;50.810;12.540;2024-02-26T17:54:44;7.00;99.90
20590;DHT22;10453;50.810;12.540;2024-02-26T17:59:01;6.90;99.90
20590;DHT22;10453;50.810;12.540;2024-02-26T18:03:18;6.80;99.90
20590;DHT22;10453;50.810;12.540;2024-02-26T18:07:36;6.60;99.90
20590;DHT22;10453;50.810;12.540;2024-02-26T18:11:53;6.50;99.90
20590;DHT22;10453;50.810;12.540;2024-02-26T18:16:13;6.40;99.90
20590;DHT22;10453;50.810;12.540;2024-02-26T18:20:31;6.30;99.90
20590;DHT22;10453;50.810;12.540;2024-02-26T18:24:48;6.20;99.90
20590;DHT22;10453;50.810;12.540;2024-02-26T18:29:05;6.10;99.90
20590;DHT22;10453;50.810;12.540;2024-02-26T18:33:22;6.00;99.90
20590;DHT22;10453;50.810;12.540;2024-02-26T18:37:40;5.80;99.90
20590;DHT22;10453;50.810;12.540;2024-02-26T18:41:58;5.70;99.90
20590;DHT22;10453;50.810;12.540;2024-02-26T18:46:15;5.50;99.90
20590;DHT22;10453;50.810;12.540;2024-02-26T18:50:32;5.30;99.90
20590;DHT22;10453;50.810;12.540;2024-02-26T18:54:49;5.20;99.90
20590;DHT22;10453;50.810;12.540;2024-02-26T18:59:07;4.90;99.90
20590;DHT22;10453;50.810;12.540;2024-02-26T19:03:25;4.80;99.90
20590;DHT22;10453;50.810;12.540;2024-02-26T19:07:43;4.60;99.90
20590;DHT22;10453;50.810;12.540;2024-02-26T19:12:00;4.50;99.90
20590;DHT22;10453;50.810;12.540;2024-02-26T19:16:18;4.40;99.90
20590;DHT22;10453;50.810;12.540;2024-02-26T19:20:37;4.30;99.90
20590;DHT22;10453;50.810;12.540;2024-02-26T19:24:54;4.20;99.90
20590;DHT22;10453;50.810;12.540;2024-02-26T19:29:11;4.10;99.90
20590;DHT22;10453;50.810;12.540;2024-02-26T19:33:29;4.00;99.90
20590;DHT22;10453;50.810;12.540;2024-02-26T19:37:46;4.00;99.90
20590;DHT22;10453;50.810;12.540;2024-02-26T19:42:03;4.00;99.90
20590;DHT22;10453;50.810;12.540;2024-02-26T19:46:20;4.00;99.90
20590;DHT22;10453;50.810;12.540;2024-02-26T19:50:37;4.00;99.90
20590;DHT22;10453;50.810;12.540;2024-02-26T19:54:54;3.90;99.90
20590;DHT22;10453;50.810;12.540;2024-02-26T19:59:12;3.80;99.90
20590;DHT22;10453;50.810;12.540;2024-02-26T20:03:30;3.70;99.90
20590;DHT22;10453;50.810;12.540;2024-02-26T20:07:47;3.60;99.90
20590;DHT22;10453;50.810;12.540;2024-02-26T20:12:04;3.50;99.90
20590;DHT22;10453;50.810;12.540;2024-02-26T20:16:22;3.40;99.90
20590;DHT22;10453;50.810;12.540;2024-02-26T20:20:40;3.30;99.90
20590;DHT22;10453;50.810;12.540;2024-02-26T20:24:59;3.20;99.90
20590;DHT22;10453;50.810;12.540;2024-02-26T20:29:16;3.10;99.90
20590;DHT22;10453;50.810;12.540;2024-02-26T20:33:34;3.20;99.90
20590;DHT22;10453;50.810;12.540;2024-02-26T20:37:53;3.10;99.90
20590;DHT22;10453;50.810;12.540;2024-02-26T20:42:10;3.10;99.90
20590;DHT22;10453;50.810;12.540;2024-02-26T20:46:27;3.10;99.90
20590;DHT22;10453;50.810;12.540;2024-02-26T20:50:45;3.10;99.90
20590;DHT22;10453;50.810;12.540;2024-02-26T20:55:02;3.10;99.90
20590;DHT22;10453;50.810;12.540;2024-02-26T20:59:19;3.00;99.90
20590;DHT22;10453;50.810;12.540;2024-02-26T21:03:36;3.00;99.90
20590;DHT22;10453;50.810;12.540;2024-02-26T21:07:54;3.00;99.90
20590;DHT22;10453;50.810;12.540;2024-02-26T21:12:11;3.00;99.90
20590;DHT22;10453;50.810;12.540;2024-02-26T21:16:29;3.00;99.90
20590;DHT22;10453;50.810;12.540;2024-02-26T21:20:46;3.10;99.90
20590;DHT22;10453;50.810;12.540;2024-02-26T21:25:04;3.10;99.90
20590;DHT22;10453;50.810;12.540;2024-02-26T21:29:21;3.10;99.90
20590;DHT22;10453;50.810;12.540;2024-02-26T21:33:38;3.20;99.90
20590;DHT22;10453;50.810;12.540;2024-02-26T21:37:55;3.20;99.90
20590;DHT22;10453;50.810;12.540;2024-02-26T21:42:12;3.30;99.90
20590;DHT22;10453;50.810;12.540;2024-02-26T21:46:30;3.30;99.90
20590;DHT22;10453;50.810;12.540;2024-02-26T21:50:47;3.30;99.90
20590;DHT22;10453;50.810;12.540;2024-02-26T21:55:04;3.40;99.90
20590;DHT22;10453;50.810;12.540;2024-02-26T21:59:21;3.40;99.90
20590;DHT22;10453;50.810;12.540;2024-02-26T22:03:39;3.50;99.90
20590;DHT22;10453;50.810;12.540;2024-02-26T22:07:57;3.50;99.90
20590;DHT22;10453;50.810;12.540;2024-02-26T22:12:14;3.70;99.90
20590;DHT22;10453;50.810;12.540;2024-02-26T22:16:31;3.70;99.90
20590;DHT22;10453;50.810;12.540;2024-02-26T22:20:49;3.70;99.90
20590;DHT22;10453;50.810;12.540;2024-02-26T22:25:06;3.70;99.90
20590;DHT22;10453;50.810;12.540;2024-02-26T22:29:23;3.80;99.90
20590;DHT22;10453;50.810;12.540;2024-02-26T22:33:43;3.90;99.90
20590;DHT22;10453;50.810;12.540;2024-02-26T22:38:00;3.90;99.90
20590;DHT22;10453;50.810;12.540;2024-02-26T22:42:19;3.90;99.90
20590;DHT22;10453;50.810;12.540;2024-02-26T22:46:37;3.80;99.90
20590;DHT22;10453;50.810;12.540;2024-02-26T22:50:54;3.90;99.90
20590;DHT22;10453;50.810;12.540;2024-02-26T22:55:11;3.90;99.90
20590;DHT22;10453;50.810;12.540;2024-02-26T22:59:31;4.00;99.90
20590;DHT22;10453;50.810;12.540;2024-02-26T23:03:49;4.00;99.90
20590;DHT22;10453;50.810;12.540;2024-02-26T23:08:06;4.10;99.90
20590;DHT22;10453;50.810;12.540;2024-02-26T23:12:24;4.20;99.90
20590;DHT22;10453;50.810;12.540;2024-02-26T23:16:41;4.10;99.90
20590;DHT22;10453;50.810;12.540;2024-02-26T23:20:59;4.20;99.90
20590;DHT22;10453;50.810;12.540;2024-02-26T23:25:17;4.30;99.90
20590;DHT22;10453;50.810;12.540;2024-02-26T23:29:36;4.30;99.90
20590;DHT22;10453;50.810;12.540;2024-02-26T23:33:53;4.40;99.90
20590;DHT22;10453;50.810;12.540;2024-02-26T23:38:12;4.30;99.90
20590;DHT22;10453;50.810;12.540;2024-02-26T23:42:29;4.40;99.90
20590;DHT22;10453;50.810;12.540;2024-02-26T23:46:46;4.50;99.90
20590;DHT22;10453;50.810;12.540;2024-02-26T23:51:04;4.50;99.90
20590;DHT22;10453;50.810;12.540;2024-02-26T23:55:21;4.50;99.90
20590;DHT22;10453;50.810;12.540;2024-02-26T23:59:38;4.60;99.90
